createdAt,value
2019-04-23T00:00:07.665Z,1000.80
2019-04-23T00:01:16.408Z,1000.78
2019-04-23T00:02:11.338Z,1000.69
2019-04-23T00:03:26.043Z,1000.74
2019-04-23T00:04:05.884Z,1000.73
2019-04-23T00:05:02.767Z,1000.75
2019-04-23T00:06:13.467Z,1000.72
2019-04-23T00:07:18.530Z,1000.70
2019-04-23T00:08:11.467Z,1000.67
2019-04-23T00:09:17.746Z,1000.66
2019-04-23T00:10:12.077Z,1000.64
2019-04-23T00:11:05.288Z,1000.66
2019-04-23T00:12:09.955Z,1000.63
2019-04-23T00:13:05.445Z,1000.58
2019-04-23T00:14:05.735Z,1000.59
2019-04-23T00:15:08.668Z,1000.58
2019-04-23T00:16:14.071Z,1000.57
2019-04-23T00:17:05.855Z,1000.55
2019-04-23T00:18:10.172Z,1000.56
2019-04-23T00:19:03.174Z,1000.54
2019-04-23T00:20:09.544Z,1000.56
2019-04-23T00:21:07.399Z,1000.55
2019-04-23T00:22:11.016Z,1000.57
2019-04-23T00:23:14.313Z,1000.54
2019-04-23T00:24:24.061Z,1000.53
2019-04-23T00:25:30.767Z,1000.51
2019-04-23T00:26:19.667Z,1000.50
2019-04-23T00:27:19.534Z,1000.48
2019-04-23T00:30:00.966Z,1000.45
2019-04-23T00:31:13.666Z,1000.45
2019-04-23T00:32:13.177Z,1000.41
2019-04-23T00:33:16.845Z,1000.38
2019-04-23T00:34:09.321Z,1000.41
2019-04-23T00:35:05.997Z,1000.38
2019-04-23T00:36:25.943Z,1000.40
2019-04-23T00:37:13.103Z,1000.36
2019-04-23T00:38:13.586Z,1000.42
2019-04-23T00:39:06.379Z,1000.39
2019-04-23T00:40:03.143Z,1000.39
2019-04-23T00:41:02.869Z,1000.34
2019-04-23T00:42:08.835Z,1000.33
2019-04-23T00:43:08.983Z,1000.34
2019-04-23T00:44:11.790Z,1000.31
2019-04-23T00:45:01.770Z,1000.28
2019-04-23T00:46:08.110Z,1000.28
2019-04-23T00:47:06.958Z,1000.26
2019-04-23T00:48:02.229Z,1000.25
2019-04-23T00:50:15.344Z,1000.26
2019-04-23T00:51:22.503Z,1000.21
2019-04-23T00:53:05.903Z,1000.20
2019-04-23T00:54:06.400Z,1000.23
2019-04-23T00:55:12.458Z,1000.21
2019-04-23T00:56:25.025Z,1000.23
2019-04-23T00:57:07.494Z,1000.18
2019-04-23T00:58:12.837Z,1000.17
2019-04-23T00:59:05.231Z,1000.15
2019-04-23T01:00:32.134Z,1000.15
2019-04-23T01:01:04.460Z,1000.15
2019-04-23T01:02:08.754Z,1000.16
2019-04-23T01:03:10.285Z,1000.18
2019-04-23T01:04:05.365Z,1000.14
2019-04-23T01:06:09.638Z,1000.16
2019-04-23T01:07:04.350Z,1000.13
2019-04-23T01:08:06.286Z,1000.14
2019-04-23T01:09:22.762Z,1000.15
2019-04-23T01:10:08.757Z,1000.15
2019-04-23T01:11:20.396Z,1000.16
2019-04-23T01:12:06.392Z,1000.15
2019-04-23T01:13:11.291Z,1000.12
2019-04-23T01:15:09.991Z,1000.06
2019-04-23T01:16:05.423Z,1000.05
2019-04-23T01:17:08.593Z,1000.07
2019-04-23T01:18:14.015Z,1000.06
2019-04-23T01:18:58.215Z,1000.01
2019-04-23T01:20:21.005Z,999.99
2019-04-23T01:21:45.767Z,999.94
2019-04-23T01:22:46.422Z,999.94
2019-04-23T01:23:53.907Z,999.96
2019-04-23T01:24:46.708Z,999.95
2019-04-23T01:25:58.107Z,999.94
2019-04-23T01:27:22.357Z,999.90
2019-04-23T01:28:09.390Z,999.91
2019-04-23T01:29:14.094Z,999.91
2019-04-23T01:31:14.771Z,999.89
2019-04-23T01:32:10.998Z,999.89
2019-04-23T01:33:10.930Z,999.88
2019-04-23T01:34:13.111Z,999.85
2019-04-23T01:37:09.345Z,999.83
2019-04-23T01:38:11.614Z,999.83
2019-04-23T01:39:14.392Z,999.81
2019-04-23T01:40:12.338Z,999.82
2019-04-23T01:41:14.062Z,999.78
2019-04-23T01:42:24.036Z,999.78
2019-04-23T01:43:07.971Z,999.79
2019-04-23T01:44:14.257Z,999.79
2019-04-23T01:45:27.429Z,999.75
2019-04-23T01:46:29.156Z,999.81
2019-04-23T01:47:08.060Z,999.77
2019-04-23T01:48:04.825Z,999.77
2019-04-23T01:49:18.380Z,999.80
2019-04-23T01:50:14.225Z,999.77
2019-04-23T01:51:15.012Z,999.76
2019-04-23T01:52:23.347Z,999.74
2019-04-23T01:53:16.716Z,999.75
2019-04-23T01:54:10.898Z,999.76
2019-04-23T01:55:17.190Z,999.75
2019-04-23T01:56:17.195Z,999.76
2019-04-23T01:57:18.139Z,999.73
2019-04-23T01:58:27.138Z,999.76
2019-04-23T01:59:12.644Z,999.76
2019-04-23T02:00:16.162Z,999.71
2019-04-23T02:01:11.790Z,999.73
2019-04-23T02:03:30.796Z,999.69
2019-04-23T02:04:18.900Z,999.68
2019-04-23T02:05:16.017Z,999.66
2019-04-23T02:06:14.782Z,999.64
2019-04-23T02:07:15.914Z,999.61
2019-04-23T02:09:12.625Z,999.62
2019-04-23T02:10:20.625Z,999.60
2019-04-23T02:11:28.512Z,999.64
2019-04-23T02:12:14.083Z,999.62
2019-04-23T02:13:17.936Z,999.62
2019-04-23T02:14:18.257Z,999.58
2019-04-23T02:16:10.610Z,999.58
2019-04-23T02:18:16.427Z,999.56
2019-04-23T02:19:18.102Z,999.48
2019-04-23T02:20:19.263Z,999.50
2019-04-23T02:21:10.277Z,999.45
2019-04-23T02:22:21.910Z,999.43
2019-04-23T02:25:17.702Z,999.44
2019-04-23T02:27:12.154Z,999.43
2019-04-23T02:28:24.249Z,999.38
2019-04-23T02:29:23.697Z,999.38
2019-04-23T02:30:26.243Z,999.37
2019-04-23T02:32:22.009Z,999.36
2019-04-23T02:33:29.872Z,999.34
2019-04-23T02:34:35.661Z,999.37
2019-04-23T02:38:30.861Z,999.35
2019-04-23T02:39:21.849Z,999.34
2019-04-23T02:40:26.677Z,999.29
2019-04-23T02:41:20.395Z,999.30
2019-04-23T02:42:30.890Z,999.32
2019-04-23T02:43:16.285Z,999.31
2019-04-23T02:44:31.784Z,999.24
2019-04-23T02:45:21.949Z,999.31
2019-04-23T02:48:41.203Z,999.28
2019-04-23T02:51:18.078Z,999.20
2019-04-23T02:56:30.834Z,999.13
2019-04-23T02:57:13.265Z,999.14
2019-04-23T02:59:42.333Z,999.13
2019-04-23T03:00:27.674Z,999.12
2019-04-23T03:03:25.790Z,999.13
2019-04-23T03:04:27.140Z,999.08
2019-04-23T03:05:21.599Z,999.05
2019-04-23T03:06:20.814Z,999.02
2019-04-23T03:07:26.733Z,999.06
2019-04-23T03:08:26.818Z,999.04
2019-04-23T03:09:23.330Z,999.02
2019-04-23T03:10:24.703Z,999.05
2019-04-23T03:12:25.001Z,999.04
2019-04-23T03:13:32.150Z,999.04
2019-04-23T03:14:16.205Z,998.99
2019-04-23T03:15:30.192Z,998.99
2019-04-23T03:16:29.900Z,999.02
2019-04-23T03:17:14.918Z,999.00
2019-04-23T03:18:35.273Z,998.98
2019-04-23T03:19:14.863Z,998.99
2019-04-23T03:20:21.361Z,998.98
2019-04-23T03:21:26.910Z,998.99
2019-04-23T03:22:42.084Z,999.03
2019-04-23T03:24:33.871Z,998.99
2019-04-23T03:27:27.826Z,998.91
2019-04-23T03:35:09.836Z,998.88
2019-04-23T03:36:13.766Z,998.90
2019-04-23T03:38:36.168Z,998.89
2019-04-23T03:39:20.055Z,998.92
2019-04-23T03:40:13.239Z,998.89
2019-04-23T03:42:17.743Z,998.89
2019-04-23T03:44:20.600Z,999.01
2019-04-23T03:45:28.073Z,999.00
2019-04-23T03:46:23.921Z,998.99
2019-04-23T03:47:24.766Z,998.97
2019-04-23T03:49:13.750Z,998.98
2019-04-23T03:51:26.402Z,998.98
2019-04-23T03:53:25.876Z,998.99
2019-04-23T03:55:30.273Z,998.89
2019-04-23T03:56:39.428Z,998.92
2019-04-23T03:58:38.691Z,998.91
2019-04-23T03:59:26.723Z,998.88
2019-04-23T04:00:33.343Z,998.92
2019-04-23T04:01:26.700Z,998.87
2019-04-23T04:03:45.816Z,998.87
2019-04-23T04:04:31.800Z,998.85
2019-04-23T04:07:27.897Z,998.86
2019-04-23T04:08:18.132Z,998.85
2019-04-23T04:09:33.104Z,998.90
2019-04-23T04:10:15.770Z,998.86
2019-04-23T04:11:22.958Z,998.91
2019-04-23T04:12:29.381Z,998.90
2019-04-23T04:13:31.015Z,998.94
2019-04-23T04:14:35.683Z,998.88
2019-04-23T04:15:43.773Z,998.86
2019-04-23T04:16:17.987Z,998.87
2019-04-23T04:17:19.737Z,998.91
2019-04-23T04:18:32.683Z,998.85
2019-04-23T04:19:32.400Z,998.89
2019-04-23T04:20:29.246Z,998.88
2019-04-23T04:21:27.913Z,998.89
2019-04-23T04:26:20.725Z,998.91
2019-04-23T04:27:29.838Z,998.85
2019-04-23T04:29:35.665Z,998.90
2019-04-23T04:30:21.859Z,998.91
2019-04-23T04:31:20.972Z,998.86
2019-04-23T04:32:36.625Z,998.88
2019-04-23T04:34:39.755Z,998.86
2019-04-23T04:40:10.688Z,998.90
2019-04-23T04:41:25.130Z,998.91
2019-04-23T04:43:31.621Z,998.90
2019-04-23T04:44:38.357Z,998.90
2019-04-23T04:45:30.503Z,998.87
2019-04-23T04:47:28.373Z,998.87
2019-04-23T04:48:27.197Z,998.88
2019-04-23T04:49:23.951Z,998.91
2019-04-23T04:50:16.356Z,998.83
2019-04-23T04:51:27.086Z,998.87
2019-04-23T04:52:39.936Z,998.89
2019-04-23T04:53:43.836Z,998.86
2019-04-23T04:54:21.422Z,998.84
2019-04-23T04:55:26.225Z,998.83
2019-04-23T04:56:30.272Z,998.86
2019-04-23T04:57:32.667Z,998.86
2019-04-23T04:58:44.113Z,998.85
2019-04-23T04:59:39.950Z,998.81
2019-04-23T05:02:28.262Z,998.83
2019-04-23T05:05:55.515Z,998.80
2019-04-23T05:06:33.545Z,998.77
2019-04-23T05:07:32.078Z,998.77
2019-04-23T05:08:26.374Z,998.80
2019-04-23T05:09:25.048Z,998.84
2019-04-23T05:10:41.363Z,998.83
2019-04-23T05:11:28.861Z,998.83
2019-04-23T05:12:23.790Z,998.84
2019-04-23T05:16:21.608Z,998.84
2019-04-23T05:17:30.173Z,998.83
2019-04-23T05:18:23.631Z,998.85
2019-04-23T05:19:29.368Z,998.82
2019-04-23T05:20:21.204Z,998.86
2019-04-23T05:21:43.171Z,998.83
2019-04-23T05:23:19.488Z,998.84
2019-04-23T05:25:15.436Z,998.80
2019-04-23T05:26:23.953Z,998.81
2019-04-23T05:27:20.349Z,998.77
2019-04-23T05:28:33.031Z,998.75
2019-04-23T05:29:11.476Z,998.78
2019-04-23T05:31:19.030Z,998.80
2019-04-23T05:32:14.710Z,998.75
2019-04-23T05:33:18.415Z,998.76
2019-04-23T05:35:28.442Z,998.72
2019-04-23T05:37:25.844Z,998.72
2019-04-23T05:39:22.131Z,998.74
2019-04-23T05:42:35.782Z,998.71
2019-04-23T05:43:22.503Z,998.71
2019-04-23T05:45:16.913Z,998.71
2019-04-23T05:46:21.857Z,998.70
2019-04-23T05:47:23.217Z,998.67
2019-04-23T05:48:19.420Z,998.67
2019-04-23T05:49:18.653Z,998.62
2019-04-23T05:50:27.158Z,998.67
2019-04-23T05:51:38.293Z,998.64
2019-04-23T05:52:17.782Z,998.67
2019-04-23T05:54:24.352Z,998.62
2019-04-23T05:55:16.921Z,998.62
2019-04-23T05:56:16.572Z,998.60
2019-04-23T05:57:17.862Z,998.60
2019-04-23T05:58:23.779Z,998.63
2019-04-23T05:59:21.605Z,998.58
2019-04-23T06:00:19.426Z,998.57
2019-04-23T06:01:35.505Z,998.55
2019-04-23T06:02:13.226Z,998.57
2019-04-23T06:03:17.971Z,998.56
2019-04-23T06:04:17.639Z,998.55
2019-04-23T06:05:19.144Z,998.56
2019-04-23T06:06:20.264Z,998.50
2019-04-23T06:08:18.719Z,998.58
2019-04-23T06:10:19.749Z,998.54
2019-04-23T06:11:19.140Z,998.50
2019-04-23T06:12:13.557Z,998.51
2019-04-23T06:13:19.461Z,998.53
2019-04-23T06:14:19.024Z,998.53
2019-04-23T06:15:20.288Z,998.47
2019-04-23T06:16:28.831Z,998.49
2019-04-23T06:17:19.729Z,998.54
2019-04-23T06:21:15.298Z,998.50
2019-04-23T06:23:26.824Z,998.50
2019-04-23T06:24:24.298Z,998.52
2019-04-23T06:25:35.937Z,998.52
2019-04-23T06:26:28.561Z,998.56
2019-04-23T06:27:24.390Z,998.52
2019-04-23T06:30:18.003Z,998.43
2019-04-23T06:32:12.982Z,998.41
2019-04-23T06:33:22.821Z,998.43
2019-04-23T06:35:16.709Z,998.35
2019-04-23T06:36:19.564Z,998.41
2019-04-23T06:37:18.092Z,998.37
2019-04-23T06:39:23.267Z,998.35
2019-04-23T06:40:14.478Z,998.35
2019-04-23T06:42:11.607Z,998.29
2019-04-23T06:43:21.544Z,998.32
2019-04-23T06:44:19.121Z,998.27
2019-04-23T06:45:19.272Z,998.30
2019-04-23T06:46:20.128Z,998.25
2019-04-23T06:47:12.678Z,998.28
2019-04-23T06:49:20.120Z,998.25
2019-04-23T06:50:14.811Z,998.30
2019-04-23T06:51:22.044Z,998.26
2019-04-23T06:52:20.194Z,998.21
2019-04-23T06:53:12.658Z,998.19
2019-04-23T06:54:20.836Z,998.19
2019-04-23T06:56:19.147Z,998.21
2019-04-23T06:57:16.328Z,998.19
2019-04-23T06:58:19.403Z,998.15
2019-04-23T06:59:21.923Z,998.17
2019-04-23T07:00:35.295Z,998.20
2019-04-23T07:01:22.137Z,998.15
2019-04-23T07:02:22.222Z,998.17
2019-04-23T07:04:21.607Z,998.09
2019-04-23T07:07:38.045Z,998.09
2019-04-23T07:08:26.187Z,998.12
2019-04-23T07:10:18.434Z,998.03
2019-04-23T07:11:27.068Z,998.04
2019-04-23T07:12:20.401Z,998.02
2019-04-23T07:13:22.736Z,998.01
2019-04-23T07:14:14.804Z,998.01
2019-04-23T07:16:14.677Z,997.95
2019-04-23T07:17:13.465Z,997.95
2019-04-23T07:18:18.206Z,997.96
2019-04-23T07:22:20.919Z,997.99
2019-04-23T07:23:20.996Z,997.95
2019-04-23T07:24:15.134Z,997.98
2019-04-23T07:25:20.371Z,997.99
2019-04-23T07:26:33.326Z,997.96
2019-04-23T07:27:22.652Z,997.92
2019-04-23T07:28:19.865Z,997.90
2019-04-23T07:29:23.890Z,997.91
2019-04-23T07:31:21.682Z,997.93
2019-04-23T07:32:20.348Z,997.91
2019-04-23T07:33:18.398Z,997.85
2019-04-23T07:34:12.340Z,997.83
2019-04-23T07:36:22.884Z,997.75
2019-04-23T07:37:17.598Z,997.75
2019-04-23T07:38:20.688Z,997.71
2019-04-23T07:39:43.098Z,997.66
2019-04-23T07:41:23.616Z,997.62
2019-04-23T07:43:15.333Z,997.65
2019-04-23T07:44:43.802Z,997.64
2019-04-23T07:46:25.014Z,997.63
2019-04-23T07:47:32.135Z,997.58
2019-04-23T07:48:13.358Z,997.60
2019-04-23T07:49:20.834Z,997.58
2019-04-23T07:51:20.927Z,997.58
2019-04-23T07:52:23.972Z,997.53
2019-04-23T07:53:17.041Z,997.52
2019-04-23T07:54:25.787Z,997.45
2019-04-23T07:55:25.505Z,997.52
2019-04-23T07:56:41.946Z,997.52
2019-04-23T07:58:23.804Z,997.45
2019-04-23T07:59:17.548Z,997.47
2019-04-23T08:00:18.208Z,997.45
2019-04-23T08:01:14.297Z,997.47
2019-04-23T08:02:21.937Z,997.49
2019-04-23T08:03:27.374Z,997.40
2019-04-23T08:04:19.812Z,997.40
2019-04-23T08:05:25.147Z,997.40
2019-04-23T08:06:12.026Z,997.42
2019-04-23T08:07:19.920Z,997.36
2019-04-23T08:09:17.580Z,997.42
2019-04-23T08:10:24.672Z,997.35
2019-04-23T08:13:21.541Z,997.37
2019-04-23T08:14:15.453Z,997.37
2019-04-23T08:15:23.178Z,997.41
2019-04-23T08:16:32.958Z,997.36
2019-04-23T08:17:21.015Z,997.40
2019-04-23T08:18:23.187Z,997.33
2019-04-23T08:19:14.277Z,997.38
2019-04-23T08:20:24.573Z,997.34
2019-04-23T08:21:22.712Z,997.35
2019-04-23T08:22:28.587Z,997.34
2019-04-23T08:23:16.643Z,997.26
2019-04-23T08:24:38.530Z,997.23
2019-04-23T08:25:17.797Z,997.27
2019-04-23T08:26:29.572Z,997.27
2019-04-23T08:27:18.176Z,997.23
2019-04-23T08:28:25.914Z,997.23
2019-04-23T08:29:21.976Z,997.21
2019-04-23T08:30:09.761Z,997.24
2019-04-23T08:31:27.070Z,997.22
2019-04-23T08:32:13.897Z,997.12
2019-04-23T08:33:17.233Z,997.11
2019-04-23T08:35:16.416Z,997.08
2019-04-23T08:36:20.350Z,997.09
2019-04-23T08:38:26.125Z,997.08
2019-04-23T08:39:18.273Z,997.03
2019-04-23T08:40:20.196Z,997.02
2019-04-23T08:42:32.632Z,997.03
2019-04-23T08:43:32.941Z,997.06
2019-04-23T08:45:01.713Z,997.10
2019-04-23T08:45:32.284Z,997.04
2019-04-23T08:46:27.022Z,996.95
2019-04-23T08:47:21.831Z,996.98
2019-04-23T08:49:22.190Z,996.97
2019-04-23T08:50:21.750Z,997.01
2019-04-23T08:51:34.359Z,996.85
2019-04-23T08:52:17.092Z,996.97
2019-04-23T08:53:30.898Z,996.88
2019-04-23T08:54:26.103Z,996.90
2019-04-23T08:55:20.973Z,996.92
2019-04-23T08:56:21.407Z,996.88
2019-04-23T08:57:21.447Z,996.87
2019-04-23T08:59:25.353Z,996.90
2019-04-23T09:00:23.089Z,996.85
2019-04-23T09:01:16.740Z,996.84
2019-04-23T09:02:35.656Z,996.85
2019-04-23T09:03:25.137Z,996.93
2019-04-23T09:04:27.114Z,996.83
2019-04-23T09:05:23.553Z,996.76
2019-04-23T09:06:15.985Z,996.81
2019-04-23T09:07:21.974Z,996.74
2019-04-23T09:08:32.928Z,996.75
2019-04-23T09:09:21.904Z,996.74
2019-04-23T09:10:22.900Z,996.80
2019-04-23T09:12:25.414Z,996.76
2019-04-23T09:14:08.935Z,996.69
2019-04-23T09:15:26.443Z,996.68
2019-04-23T09:17:21.205Z,996.64
2019-04-23T09:18:22.567Z,996.65
2019-04-23T09:19:23.661Z,996.59
2019-04-23T09:20:21.942Z,996.57
2019-04-23T09:21:25.649Z,996.56
2019-04-23T09:22:34.601Z,996.56
2019-04-23T09:23:20.319Z,996.47
2019-04-23T09:24:23.007Z,996.48
2019-04-23T09:26:17.789Z,996.35
2019-04-23T09:27:22.519Z,996.34
2019-04-23T09:28:27.288Z,996.31
2019-04-23T09:29:20.368Z,996.26
2019-04-23T09:30:22.966Z,996.34
2019-04-23T09:31:31.097Z,996.30
2019-04-23T09:32:32.821Z,996.29
2019-04-23T09:33:26.201Z,996.28
2019-04-23T09:34:17.118Z,996.19
2019-04-23T09:35:20.700Z,996.30
2019-04-23T09:36:22.295Z,996.27
2019-04-23T09:38:21.877Z,996.37
2019-04-23T09:39:22.508Z,996.37
2019-04-23T09:40:31.618Z,996.32
2019-04-23T09:42:27.971Z,996.36
2019-04-23T09:43:21.194Z,996.26
2019-04-23T09:44:45.049Z,996.22
2019-04-23T09:45:22.837Z,996.25
2019-04-23T09:47:19.292Z,996.19
2019-04-23T09:48:37.322Z,996.22
2019-04-23T09:49:36.200Z,996.18
2019-04-23T09:50:20.444Z,996.20
2019-04-23T09:51:27.905Z,996.09
2019-04-23T09:52:20.430Z,996.18
2019-04-23T09:56:25.065Z,996.22
2019-04-23T09:57:15.997Z,996.16
2019-04-23T09:58:15.443Z,996.14
2019-04-23T09:59:26.191Z,996.11
2019-04-23T10:01:23.656Z,996.14
2019-04-23T10:02:13.168Z,996.04
2019-04-23T10:03:09.097Z,996.06
2019-04-23T10:04:06.057Z,996.04
2019-04-23T10:05:07.328Z,996.06
2019-04-23T10:06:03.256Z,995.96
2019-04-23T10:07:07.227Z,996.03
2019-04-23T10:08:04.206Z,996.02
2019-04-23T10:08:57.669Z,996.05
2019-04-23T10:09:53.550Z,996.03
2019-04-23T10:10:53.400Z,996.00
2019-04-23T10:11:53.366Z,995.96
2019-04-23T10:12:53.912Z,995.91
2019-04-23T10:13:54.684Z,995.99
2019-04-23T10:15:03.327Z,996.02
2019-04-23T10:15:53.926Z,996.06
2019-04-23T10:16:53.387Z,995.98
2019-04-23T10:17:54.224Z,996.07
2019-04-23T10:18:53.381Z,996.04
2019-04-23T10:19:55.038Z,995.98
2019-04-23T10:20:54.322Z,995.97
2019-04-23T10:21:53.431Z,995.98
2019-04-23T10:22:54.566Z,995.91
2019-04-23T10:23:54.746Z,995.92
2019-04-23T10:24:53.427Z,995.87
2019-04-23T10:25:54.100Z,995.81
2019-04-23T10:26:53.322Z,995.89
2019-04-23T10:28:00.588Z,995.81
2019-04-23T10:28:54.005Z,995.88
2019-04-23T10:29:54.109Z,995.73
2019-04-23T10:30:54.621Z,995.75
2019-04-23T10:31:53.708Z,995.77
2019-04-23T10:32:53.742Z,995.75
2019-04-23T10:33:53.440Z,995.74
2019-04-23T10:35:05.117Z,995.73
2019-04-23T10:35:58.948Z,995.67
2019-04-23T10:36:53.720Z,995.68
2019-04-23T10:38:00.495Z,995.64
2019-04-23T10:39:01.983Z,995.62
2019-04-23T10:39:58.243Z,995.64
2019-04-23T10:40:54.120Z,995.67
2019-04-23T10:41:55.355Z,995.67
2019-04-23T10:42:54.385Z,995.76
2019-04-23T10:43:54.954Z,995.71
2019-04-23T10:45:08.751Z,995.69
2019-04-23T10:46:15.411Z,995.64
2019-04-23T10:47:23.778Z,995.58
2019-04-23T10:48:28.059Z,995.63
2019-04-23T10:50:30.958Z,995.58
2019-04-23T10:51:28.563Z,995.57
2019-04-23T10:55:25.264Z,995.50
2019-04-23T10:56:30.547Z,995.61
2019-04-23T10:58:25.141Z,995.50
2019-04-23T10:59:31.038Z,995.54
2019-04-23T11:00:24.028Z,995.52
2019-04-23T11:01:24.507Z,995.45
2019-04-23T11:02:34.752Z,995.45
2019-04-23T11:04:39.937Z,995.41
2019-04-23T11:05:30.378Z,995.39
2019-04-23T11:06:32.525Z,995.43
2019-04-23T11:08:27.803Z,995.39
2019-04-23T11:10:22.046Z,995.42
2019-04-23T11:11:27.848Z,995.42
2019-04-23T11:12:33.015Z,995.38
2019-04-23T11:13:25.741Z,995.38
2019-04-23T11:14:25.718Z,995.37
2019-04-23T11:16:49.613Z,995.36
2019-04-23T11:17:33.192Z,995.37
2019-04-23T11:18:31.260Z,995.35
2019-04-23T11:19:25.762Z,995.34
2019-04-23T11:20:30.284Z,995.41
2019-04-23T11:21:28.644Z,995.36
2019-04-23T11:23:24.524Z,995.34
2019-04-23T11:26:31.993Z,995.30
2019-04-23T11:27:28.207Z,995.37
2019-04-23T11:29:27.997Z,995.27
2019-04-23T11:31:32.037Z,995.27
2019-04-23T11:33:23.421Z,995.25
2019-04-23T11:35:31.125Z,995.23
2019-04-23T11:36:48.316Z,995.31
2019-04-23T11:37:37.296Z,995.28
2019-04-23T11:39:28.837Z,995.32
2019-04-23T11:40:25.314Z,995.33
2019-04-23T11:41:36.523Z,995.28
2019-04-23T11:44:26.384Z,995.15
2019-04-23T11:45:32.434Z,995.16
2019-04-23T11:46:42.764Z,995.16
2019-04-23T11:47:45.602Z,995.22
2019-04-23T11:50:41.344Z,995.17
2019-04-23T11:52:30.815Z,995.22
2019-04-23T11:53:29.694Z,995.25
2019-04-23T11:54:27.776Z,995.22
2019-04-23T11:55:32.831Z,995.15
2019-04-23T11:59:31.570Z,995.15
2019-04-23T12:00:38.559Z,995.12
2019-04-23T12:02:23.344Z,995.23
2019-04-23T12:03:19.412Z,995.19
2019-04-23T12:05:26.901Z,995.13
2019-04-23T12:07:26.304Z,995.00
2019-04-23T12:08:36.771Z,995.06
2019-04-23T12:09:36.815Z,995.14
2019-04-23T12:10:29.191Z,995.11
2019-04-23T12:11:46.781Z,995.22
2019-04-23T12:12:23.548Z,995.13
2019-04-23T12:13:28.525Z,995.13
2019-04-23T12:14:40.583Z,995.11
2019-04-23T12:16:27.981Z,995.12
2019-04-23T12:17:24.885Z,995.13
2019-04-23T12:18:43.366Z,995.16
2019-04-23T12:20:29.041Z,995.12
2019-04-23T12:21:28.265Z,995.14
2019-04-23T12:22:36.795Z,995.18
2019-04-23T12:23:31.906Z,995.19
2019-04-23T12:24:50.677Z,995.16
2019-04-23T12:26:35.797Z,994.91
2019-04-23T12:28:30.122Z,994.93
2019-04-23T12:29:31.938Z,995.02
2019-04-23T12:30:35.985Z,994.89
2019-04-23T12:33:31.636Z,994.92
2019-04-23T12:34:28.413Z,994.88
2019-04-23T12:36:28.282Z,994.90
2019-04-23T12:37:29.716Z,994.93
2019-04-23T12:38:28.326Z,994.95
2019-04-23T12:39:27.026Z,994.89
2019-04-23T12:41:20.725Z,994.86
2019-04-23T12:42:43.414Z,994.91
2019-04-23T12:43:23.228Z,994.85
2019-04-23T12:44:22.069Z,994.85
2019-04-23T12:45:29.127Z,994.89
2019-04-23T12:46:26.010Z,994.83
2019-04-23T12:47:40.262Z,994.81
2019-04-23T12:48:33.802Z,994.80
2019-04-23T12:49:44.033Z,994.82
2019-04-23T12:51:35.062Z,994.76
2019-04-23T12:52:25.287Z,994.80
2019-04-23T12:53:33.586Z,994.73
2019-04-23T12:54:33.761Z,994.75
2019-04-23T12:55:34.039Z,994.69
2019-04-23T12:56:31.796Z,994.65
2019-04-23T12:57:37.202Z,994.61
2019-04-23T12:58:29.148Z,994.64
2019-04-23T12:59:27.212Z,994.68
2019-04-23T13:01:23.583Z,994.59
2019-04-23T13:02:36.510Z,994.58
2019-04-23T13:03:27.742Z,994.62
2019-04-23T13:04:24.939Z,994.64
2019-04-23T13:05:31.873Z,994.62
2019-04-23T13:06:22.114Z,994.63
2019-04-23T13:07:36.692Z,994.56
2019-04-23T13:08:33.624Z,994.57
2019-04-23T13:09:42.843Z,994.61
2019-04-23T13:10:28.306Z,994.64
2019-04-23T13:11:33.189Z,994.68
2019-04-23T13:12:39.964Z,994.63
2019-04-23T13:14:30.029Z,994.63
2019-04-23T13:15:22.609Z,994.64
2019-04-23T13:16:39.818Z,994.65
2019-04-23T13:18:03.390Z,994.64
2019-04-23T13:18:23.688Z,994.63
2019-04-23T13:21:48.127Z,994.52
2019-04-23T13:22:30.786Z,994.65
2019-04-23T13:23:24.481Z,994.55
2019-04-23T13:24:25.992Z,994.65
2019-04-23T13:25:27.022Z,994.60
2019-04-23T13:27:30.701Z,994.61
2019-04-23T13:29:34.007Z,994.56
2019-04-23T13:30:33.965Z,994.61
2019-04-23T13:31:24.223Z,994.53
2019-04-23T13:32:31.453Z,994.63
2019-04-23T13:33:34.716Z,994.56
2019-04-23T13:34:37.646Z,994.56
2019-04-23T13:35:42.045Z,994.46
2019-04-23T13:39:28.655Z,994.70
2019-04-23T13:40:34.119Z,994.67
2019-04-23T13:41:20.478Z,994.71
2019-04-23T13:42:31.864Z,994.74
2019-04-23T13:44:25.457Z,994.71
2019-04-23T13:45:51.137Z,994.72
2019-04-23T13:46:27.869Z,994.59
2019-04-23T13:47:43.359Z,994.56
2019-04-23T13:48:30.160Z,994.64
2019-04-23T13:49:28.465Z,994.64
2019-04-23T13:52:47.855Z,994.69
2019-04-23T13:53:37.149Z,994.59
2019-04-23T13:54:46.903Z,994.71
2019-04-23T13:55:24.749Z,994.66
2019-04-23T13:58:23.691Z,995.63
2019-04-23T13:59:30.666Z,995.49
2019-04-23T14:00:35.319Z,995.82
2019-04-23T14:02:40.299Z,996.01
2019-04-23T14:03:30.718Z,995.77
2019-04-23T14:04:34.801Z,995.54
2019-04-23T14:05:26.759Z,995.45
2019-04-23T14:06:34.991Z,995.69
2019-04-23T14:07:32.598Z,995.81
2019-04-23T14:08:37.840Z,995.96
2019-04-23T14:09:39.521Z,996.01
2019-04-23T14:10:41.623Z,995.75
2019-04-23T14:12:31.899Z,995.68
2019-04-23T14:14:34.478Z,995.58
2019-04-23T14:15:39.211Z,995.41
2019-04-23T14:16:34.100Z,995.46
2019-04-23T14:17:38.470Z,995.40
2019-04-23T14:19:16.819Z,995.34
2019-04-23T14:20:29.525Z,995.28
2019-04-23T14:22:51.254Z,995.16
2019-04-23T14:23:31.527Z,995.21
2019-04-23T14:24:26.773Z,995.07
2019-04-23T14:25:56.637Z,995.12
2019-04-23T14:26:29.559Z,995.06
2019-04-23T14:27:26.737Z,994.98
2019-04-23T14:28:29.062Z,995.01
2019-04-23T14:29:28.474Z,995.12
2019-04-23T14:30:29.467Z,995.05
2019-04-23T14:31:23.373Z,995.01
2019-04-23T14:33:37.460Z,994.87
2019-04-23T14:34:31.273Z,994.79
2019-04-23T14:35:37.197Z,994.82
2019-04-23T14:36:27.008Z,994.79
2019-04-23T14:37:21.631Z,994.77
2019-04-23T14:39:28.553Z,994.70
2019-04-23T14:40:43.207Z,994.68
2019-04-23T14:41:26.260Z,994.62
2019-04-23T14:42:33.867Z,994.70
2019-04-23T14:44:22.560Z,994.73
2019-04-23T14:45:46.680Z,994.78
2019-04-23T14:47:29.470Z,994.88
2019-04-23T14:48:29.822Z,994.95
2019-04-23T14:49:25.732Z,995.00
2019-04-23T14:50:34.613Z,994.87
2019-04-23T14:51:32.074Z,994.79
2019-04-23T14:52:29.743Z,994.70
2019-04-23T14:53:26.869Z,994.78
2019-04-23T14:54:34.675Z,994.85
2019-04-23T14:56:26.379Z,995.02
2019-04-23T14:57:34.047Z,995.08
2019-04-23T14:58:36.076Z,995.00
2019-04-23T14:59:16.391Z,995.02
2019-04-23T15:02:28.696Z,995.03
2019-04-23T15:03:32.337Z,995.03
2019-04-23T15:04:28.957Z,994.93
2019-04-23T15:05:38.516Z,994.97
2019-04-23T15:06:37.838Z,994.90
2019-04-23T15:07:27.919Z,994.95
2019-04-23T15:08:30.184Z,994.94
2019-04-23T15:09:28.122Z,994.88
2019-04-23T15:10:34.388Z,994.81
2019-04-23T15:13:31.757Z,994.88
2019-04-23T15:15:25.166Z,994.77
2019-04-23T15:17:28.483Z,994.77
2019-04-23T15:18:35.321Z,994.75
2019-04-23T15:21:47.058Z,994.73
2019-04-23T15:22:50.579Z,994.67
2019-04-23T15:23:59.145Z,994.64
2019-04-23T15:24:27.873Z,994.65
2019-04-23T15:25:36.739Z,994.65
2019-04-23T15:27:59.974Z,994.60
2019-04-23T15:28:07.522Z,994.63
2019-04-23T15:29:09.765Z,994.66
2019-04-23T15:30:21.523Z,994.67
2019-04-23T15:32:34.335Z,994.57
2019-04-23T15:34:23.813Z,994.55
2019-04-23T15:35:37.219Z,994.58
2019-04-23T15:36:59.715Z,994.57
2019-04-23T15:37:43.122Z,994.60
2019-04-23T15:40:30.246Z,994.60
2019-04-23T15:41:33.476Z,994.48
2019-04-23T15:42:51.013Z,994.50
2019-04-23T15:43:49.534Z,994.48
2019-04-23T15:44:43.163Z,994.47
2019-04-23T15:45:28.486Z,994.50
2019-04-23T15:47:33.027Z,994.56
2019-04-23T15:49:26.896Z,994.50
2019-04-23T15:50:29.724Z,994.45
2019-04-23T15:52:37.798Z,994.38
2019-04-23T15:53:17.408Z,994.39
2019-04-23T15:54:37.572Z,994.37
2019-04-23T15:55:28.202Z,994.30